Time;durP1;ratioP1;P1;durP2;ratioP2;P2;SDS_P1;SDS_P2;PMS_P1;PMS_P2;Temp;Humidity;BMP_temperature;BMP_pressure;BME280_temperature;BME280_humidity;BME280_pressure;Samples;Min_cycle;Max_cycle;Signal;HPM_P1;HPM_P2
2022/09/26 00:01:07;;;;;;;1.92;0.70;;;11.90;99.90;;;;;;5069869;28;20051;-72
2022/09/26 00:03:33;;;;;;;3.38;0.90;;;11.90;99.90;;;;;;5064342;28;20262;-72
2022/09/26 00:06:05;;;;;;;2.88;1.00;;;11.90;99.90;;;;;;5062293;28;20037;-72
2022/09/26 00:08:30;;;;;;;3.03;1.27;;;12.00;99.90;;;;;;5061464;28;20036;-72
2022/09/26 00:10:58;;;;;;;5.07;1.80;;;12.00;99.90;;;;;;5046659;28;20215;-72
2022/09/26 00:13:25;;;;;;;4.55;1.13;;;12.00;99.90;;;;;;5073795;28;20036;-72
2022/09/26 00:15:52;;;;;;;3.42;1.00;;;12.00;99.90;;;;;;5063914;28;20041;-71
2022/09/26 00:18:17;;;;;;;3.05;1.00;;;12.00;99.90;;;;;;5059314;28;20055;-72
2022/09/26 00:20:43;;;;;;;1.13;0.70;;;12.00;99.90;;;;;;5061866;28;20335;-72
2022/09/26 00:23:08;;;;;;;4.03;0.63;;;12.00;99.90;;;;;;5059586;28;21719;-73
2022/09/26 00:25:34;;;;;;;2.40;1.03;;;12.00;99.90;;;;;;5059019;28;20104;-73
2022/09/26 00:28:00;;;;;;;3.30;1.00;;;12.00;99.90;;;;;;5065714;28;20032;-73
2022/09/26 00:30:26;;;;;;;3.35;1.00;;;12.00;99.90;;;;;;5055532;28;20297;-72
2022/09/26 00:32:51;;;;;;;2.57;0.73;;;12.00;99.90;;;;;;5063786;28;20052;-73
2022/09/26 00:35:17;;;;;;;2.07;1.00;;;12.00;99.90;;;;;;5063754;28;20036;-73
2022/09/26 00:37:42;;;;;;;1.88;0.90;;;12.00;99.90;;;;;;5068754;28;20472;-73
2022/09/26 00:40:09;;;;;;;2.77;1.00;;;12.00;99.90;;;;;;5067305;28;20293;-72
2022/09/26 00:42:34;;;;;;;2.58;1.08;;;12.00;99.90;;;;;;5063572;28;20045;-73
2022/09/26 00:45:00;;;;;;;2.67;0.80;;;12.00;99.90;;;;;;5059858;28;20071;-73
2022/09/26 00:47:35;;;;;;;3.73;1.30;;;11.90;99.90;;;;;;5057664;28;20032;-73
2022/09/26 00:50:15;;;;;;;3.33;1.10;;;12.00;99.90;;;;;;5069787;28;20051;-73
2022/09/26 00:53:07;;;;;;;4.43;0.80;;;12.00;99.90;;;;;;5066792;28;20240;-73
2022/09/26 00:55:37;;;;;;;4.32;1.27;;;12.00;99.90;;;;;;5065241;28;20559;-72
2022/09/26 00:58:07;;;;;;;6.68;1.23;;;12.00;99.90;;;;;;5065679;28;20048;-71
2022/09/26 01:00:33;;;;;;;1.83;1.00;;;11.90;99.90;;;;;;5055516;28;20447;-72
2022/09/26 01:03:00;;;;;;;4.70;1.17;;;12.00;99.90;;;;;;5064692;28;20068;-72
2022/09/26 01:05:25;;;;;;;2.78;1.13;;;11.90;99.90;;;;;;5062074;28;20032;-72
2022/09/26 01:07:54;;;;;;;2.28;0.80;;;12.00;99.90;;;;;;5068670;28;20089;-72
2022/09/26 01:10:23;;;;;;;2.78;0.90;;;12.00;99.90;;;;;;5061891;28;20072;-72
2022/09/26 01:12:49;;;;;;;3.28;1.23;;;12.00;99.90;;;;;;5063964;28;20044;-71
2022/09/26 01:15:15;;;;;;;4.88;1.10;;;12.00;99.90;;;;;;5057958;28;20136;-71
2022/09/26 01:17:42;;;;;;;3.63;1.00;;;12.00;99.90;;;;;;5058519;28;20159;-71
2022/09/26 01:20:43;;;;;;;1.52;0.70;;;12.00;99.90;;;;;;5051391;28;20051;-72
2022/09/26 01:23:36;;;;;;;2.33;0.90;;;12.00;99.90;;;;;;5048849;28;20079;-72
2022/09/26 01:26:17;;;;;;;3.65;1.05;;;12.00;99.90;;;;;;5063354;28;20068;-72
2022/09/26 01:29:24;;;;;;;5.07;0.77;;;12.00;99.90;;;;;;5054177;28;20094;-72
2022/09/26 01:35:43;;;;;;;4.65;0.98;;;12.00;99.90;;;;;;5061365;28;20326;-72
2022/09/26 01:38:25;;;;;;;3.25;0.80;;;12.00;99.90;;;;;;5067121;28;20044;-72
2022/09/26 01:41:12;;;;;;;3.97;0.88;;;12.00;99.90;;;;;;5061735;28;20043;-72
2022/09/26 01:43:41;;;;;;;;;;;12.00;99.90;;;;;;5062446;28;20080;-71
2022/09/26 01:46:24;;;;;;;2.30;1.00;;;12.00;99.90;;;;;;5058448;28;19916;-72
2022/09/26 01:48:56;;;;;;;2.30;0.90;;;11.90;99.90;;;;;;5074598;28;20508;-71
2022/09/26 01:51:28;;;;;;;3.33;0.82;;;12.00;99.90;;;;;;5059353;28;20123;-71
2022/09/26 01:54:05;;;;;;;3.35;1.10;;;12.00;99.90;;;;;;5063242;28;20043;-72
2022/09/26 01:56:35;;;;;;;4.65;1.05;;;12.00;99.90;;;;;;5063795;28;20048;-71
2022/09/26 01:59:12;;;;;;;1.73;0.80;;;12.00;99.90;;;;;;5059278;28;20048;-71
2022/09/26 02:01:41;;;;;;;2.08;0.98;;;12.00;99.90;;;;;;5059847;28;20502;-72
2022/09/26 02:04:16;;;;;;;2.53;1.10;;;11.90;99.90;;;;;;5060848;28;20115;-71
2022/09/26 02:06:56;;;;;;;4.82;1.20;;;11.80;99.90;;;;;;5077280;22;20110;-76
2022/09/26 02:09:39;;;;;;;7.05;1.40;;;11.90;99.90;;;;;;5050542;28;25033;-70
2022/09/26 02:12:09;;;;;;;1.75;0.75;;;11.90;99.90;;;;;;5055766;28;20279;-71
2022/09/26 02:14:40;;;;;;;3.45;1.08;;;11.80;99.90;;;;;;5059322;28;20116;-70
2022/09/26 02:17:21;;;;;;;7.65;1.30;;;11.80;99.90;;;;;;5045126;28;20100;-71
2022/09/26 02:19:57;;;;;;;5.45;1.13;;;11.80;99.90;;;;;;5060501;28;20075;-70
2022/09/26 02:22:27;;;;;;;4.68;1.10;;;11.80;99.90;;;;;;5058347;28;20051;-71
2022/09/26 02:24:53;;;;;;;1.83;1.05;;;11.80;99.90;;;;;;5051574;28;20039;-71
2022/09/26 02:27:18;;;;;;;4.63;1.17;;;11.70;99.90;;;;;;5058577;28;20448;-72
2022/09/26 02:29:44;;;;;;;3.73;1.00;;;11.70;99.90;;;;;;5027472;28;20040;-71
2022/09/26 02:32:15;;;;;;;4.55;1.05;;;11.70;99.90;;;;;;5059416;28;20356;-71
2022/09/26 02:34:43;;;;;;;5.53;1.10;;;11.60;99.90;;;;;;5051069;28;20048;-71
2022/09/26 02:37:12;;;;;;;3.55;1.30;;;11.70;99.90;;;;;;5056956;28;20118;-70
2022/09/26 02:39:39;;;;;;;5.75;1.08;;;11.60;99.90;;;;;;5059706;28;20097;-70
2022/09/26 02:42:23;;;;;;;3.90;1.33;;;11.70;99.90;;;;;;5060100;28;20049;-70
2022/09/26 02:45:11;;;;;;;4.57;1.33;;;11.60;99.90;;;;;;5059288;28;20496;-71
2022/09/26 02:48:12;;;;;;;1.30;0.95;;;11.60;99.90;;;;;;5038240;28;20047;-71
2022/09/26 02:51:12;;;;;;;4.45;0.90;;;11.60;99.90;;;;;;5060504;28;20413;-71
2022/09/26 02:53:43;;;;;;;2.13;1.20;;;11.60;99.90;;;;;;5041407;28;20048;-71
2022/09/26 02:56:36;;;;;;;5.07;1.30;;;11.60;99.90;;;;;;5046432;28;20123;-71
2022/09/26 02:59:15;;;;;;;7.47;1.20;;;11.60;99.90;;;;;;5045412;28;20502;-71
2022/09/26 03:01:47;;;;;;;3.83;1.40;;;11.60;99.90;;;;;;5058828;28;20056;-71
2022/09/26 03:04:43;;;;;;;3.60;1.55;;;11.60;99.90;;;;;;5057702;28;20115;-71
2022/09/26 03:07:15;;;;;;;6.40;1.55;;;11.60;99.90;;;;;;5056934;28;20216;-71
2022/09/26 03:09:46;;;;;;;7.90;1.70;;;11.60;99.90;;;;;;5055636;28;20402;-71
2022/09/26 03:12:12;;;;;;;4.88;1.45;;;11.60;99.90;;;;;;5061546;28;20072;-71
2022/09/26 03:14:40;;;;;;;3.80;1.38;;;11.60;99.90;;;;;;5043622;28;20128;-71
2022/09/26 03:17:08;;;;;;;3.85;1.60;;;11.60;99.90;;;;;;5051779;28;20521;-71
2022/09/26 03:19:44;;;;;;;2.95;1.58;;;11.60;99.90;;;;;;5036965;28;20567;-71
2022/09/26 03:22:11;;;;;;;3.08;1.38;;;11.60;99.90;;;;;;5060393;28;20040;-71
2022/09/26 03:24:40;;;;;;;2.22;1.52;;;11.60;99.90;;;;;;5065130;28;20048;-71
2022/09/26 03:27:07;;;;;;;4.22;1.73;;;11.60;99.90;;;;;;5060399;28;20048;-71
2022/09/26 03:29:33;;;;;;;4.80;1.50;;;11.70;99.90;;;;;;5058832;28;20052;-71
2022/09/26 03:31:59;;;;;;;5.53;1.60;;;11.60;99.90;;;;;;5062764;28;20082;-71
2022/09/26 03:34:26;;;;;;;5.88;1.83;;;11.60;99.90;;;;;;5060665;28;20786;-71
2022/09/26 03:36:52;;;;;;;;;;;11.60;99.90;;;;;;5061723;28;20044;-71
2022/09/26 03:39:18;;;;;;;2.85;1.65;;;11.60;99.90;;;;;;5063850;28;19916;-72
2022/09/26 03:41:43;;;;;;;3.72;1.60;;;11.60;99.90;;;;;;5065650;28;20051;-71
2022/09/26 03:44:10;;;;;;;2.92;1.50;;;11.60;99.90;;;;;;5060600;28;20049;-71
2022/09/26 03:46:35;;;;;;;2.92;1.30;;;11.60;99.90;;;;;;5043221;28;20123;-72
2022/09/26 03:49:01;;;;;;;3.13;1.83;;;11.70;99.90;;;;;;5061780;28;20123;-73
2022/09/26 03:51:27;;;;;;;4.33;1.90;;;11.60;99.90;;;;;;5066601;28;20079;-71
2022/09/26 03:53:52;;;;;;;4.63;1.43;;;11.60;99.90;;;;;;5064795;28;20659;-71
2022/09/26 03:56:20;;;;;;;3.57;1.67;;;11.60;99.90;;;;;;5064757;28;20067;-70
2022/09/26 03:58:47;;;;;;;4.78;1.45;;;11.60;99.90;;;;;;5054230;28;20444;-70
2022/09/26 04:01:16;;;;;;;3.47;1.70;;;11.60;99.90;;;;;;5070224;28;20226;-71
2022/09/26 04:03:44;;;;;;;3.97;1.50;;;11.60;99.90;;;;;;5062677;28;21820;-70
2022/09/26 04:06:10;;;;;;;4.18;1.70;;;11.60;99.90;;;;;;5044823;28;20052;-71
2022/09/26 04:08:37;;;;;;;2.55;1.70;;;11.60;99.90;;;;;;5056964;28;20934;-71
2022/09/26 04:11:12;;;;;;;6.50;1.60;;;11.60;99.90;;;;;;5062165;28;20037;-71
2022/09/26 04:13:38;;;;;;;5.03;1.50;;;11.60;99.90;;;;;;5060258;28;20044;-71
2022/09/26 04:16:06;;;;;;;4.78;1.65;;;11.60;99.90;;;;;;5063370;28;20306;-71
2022/09/26 04:18:33;;;;;;;3.22;1.75;;;11.60;99.90;;;;;;5059856;28;20501;-70
2022/09/26 04:21:01;;;;;;;4.78;1.67;;;11.50;99.90;;;;;;5060483;28;20037;-71
2022/09/26 04:23:28;;;;;;;2.72;1.42;;;11.50;99.90;;;;;;5061324;28;20095;-72
2022/09/26 04:25:53;;;;;;;;;;;11.60;99.90;;;;;;5059164;28;20485;-71
2022/09/26 04:28:19;;;;;;;3.60;1.73;;;11.50;99.90;;;;;;5066264;28;19920;-71
2022/09/26 04:30:45;;;;;;;5.72;2.15;;;11.50;99.90;;;;;;5045383;28;20120;-71
2022/09/26 04:33:11;;;;;;;2.63;1.70;;;11.50;99.90;;;;;;5045351;28;20128;-71
2022/09/26 04:35:37;;;;;;;2.97;1.42;;;11.50;99.90;;;;;;5058758;28;20098;-71
2022/09/26 04:38:03;;;;;;;4.70;2.33;;;11.50;99.90;;;;;;5061625;28;20090;-71
2022/09/26 04:40:30;;;;;;;4.03;1.73;;;11.50;99.90;;;;;;5052728;28;20040;-71
2022/09/26 04:42:56;;;;;;;;;;;11.50;99.90;;;;;;5055219;28;20047;-70
2022/09/26 04:45:21;;;;;;;5.78;1.92;;;11.50;99.90;;;;;;5056510;28;20359;-70
2022/09/26 04:47:47;;;;;;;5.03;1.70;;;11.50;99.90;;;;;;5058376;28;20040;-71
2022/09/26 04:50:13;;;;;;;2.80;1.50;;;11.50;99.90;;;;;;5057370;28;20155;-71
2022/09/26 04:52:39;;;;;;;4.63;1.67;;;11.50;99.90;;;;;;5058592;28;20048;-71
2022/09/26 04:55:05;;;;;;;3.03;1.87;;;11.50;99.90;;;;;;5061881;28;20037;-71
2022/09/26 04:57:30;;;;;;;4.63;2.05;;;11.50;99.90;;;;;;5063617;28;20296;-71
2022/09/26 04:59:56;;;;;;;5.63;2.13;;;11.50;99.90;;;;;;5061595;28;20390;-70
2022/09/26 05:02:22;;;;;;;4.27;2.00;;;11.40;99.90;;;;;;5059539;28;20040;-72
2022/09/26 05:04:48;;;;;;;5.17;2.10;;;11.40;99.90;;;;;;5056528;28;20433;-70
2022/09/26 05:07:15;;;;;;;5.40;2.33;;;11.50;99.90;;;;;;5055442;28;20043;-72
2022/09/26 05:09:41;;;;;;;;;;;11.50;99.90;;;;;;5061477;28;20451;-71
2022/09/26 05:12:07;;;;;;;6.13;2.30;;;11.40;99.90;;;;;;5060588;28;19920;-71
2022/09/26 05:14:34;;;;;;;4.18;2.50;;;11.50;99.90;;;;;;5057947;28;20694;-71
2022/09/26 05:17:01;;;;;;;2.85;2.17;;;11.40;99.90;;;;;;5050478;28;20506;-70
2022/09/26 05:19:27;;;;;;;6.18;2.15;;;11.40;99.90;;;;;;5035745;28;20047;-70
2022/09/26 05:21:52;;;;;;;5.38;2.75;;;11.40;99.90;;;;;;5056003;28;20053;-71
2022/09/26 05:27:05;;;;;;;4.03;2.13;;;11.40;99.90;;;;;;5050385;28;20044;-71
2022/09/26 05:29:31;;;;;;;6.75;2.70;;;11.40;99.90;;;;;;5038208;28;20505;-70
2022/09/26 05:31:57;;;;;;;5.40;2.57;;;11.40;99.90;;;;;;5061264;28;20176;-71
2022/09/26 05:34:24;;;;;;;7.72;2.42;;;11.40;99.90;;;;;;5056601;28;20124;-71
2022/09/26 05:36:51;;;;;;;5.95;3.00;;;11.40;99.90;;;;;;5055693;28;20059;-70
2022/09/26 05:42:04;;;;;;;4.43;2.35;;;11.40;99.90;;;;;;5056462;28;20036;-70
2022/09/26 05:44:30;;;;;;;5.03;2.50;;;11.40;99.90;;;;;;5058889;28;20044;-70
2022/09/26 05:46:56;;;;;;;4.18;2.45;;;11.30;99.90;;;;;;5059203;28;20482;-71
2022/09/26 05:49:22;;;;;;;4.72;2.47;;;11.30;99.90;;;;;;5055523;28;20129;-71
2022/09/26 05:51:48;;;;;;;4.18;2.30;;;11.30;99.90;;;;;;5058769;28;20227;-73
2022/09/26 05:54:13;;;;;;;4.47;2.63;;;11.30;99.90;;;;;;5057985;28;20158;-72
2022/09/26 05:56:39;;;;;;;4.23;2.43;;;11.30;99.90;;;;;;5057862;28;20335;-73
2022/09/26 05:59:05;;;;;;;7.17;2.37;;;11.30;99.90;;;;;;5055266;28;20123;-72
2022/09/26 06:01:32;;;;;;;5.22;1.90;;;11.30;99.90;;;;;;5051659;28;20306;-72
2022/09/26 06:04:03;;;;;;;10.00;2.08;;;11.30;99.90;;;;;;5062430;28;20058;-71
2022/09/26 06:06:29;;;;;;;4.88;2.67;;;11.30;99.90;;;;;;5058035;28;20036;-74
2022/09/26 06:08:57;;;;;;;5.97;2.58;;;11.30;99.90;;;;;;5060801;28;20086;-75
2022/09/26 06:11:29;;;;;;;4.25;2.10;;;11.30;99.90;;;;;;5044450;28;20162;-71
2022/09/26 06:13:57;;;;;;;4.35;1.95;;;11.30;99.90;;;;;;5059137;28;20324;-71
2022/09/26 06:16:22;;;;;;;7.28;2.22;;;11.20;99.90;;;;;;5051431;28;20045;-71
2022/09/26 06:18:51;;;;;;;3.70;1.97;;;11.20;99.90;;;;;;5060001;28;20101;-71
2022/09/26 06:21:18;;;;;;;5.72;2.40;;;11.20;99.90;;;;;;5059007;28;20784;-70
2022/09/26 06:23:44;;;;;;;3.78;2.08;;;11.20;99.90;;;;;;5052771;28;20067;-71
2022/09/26 06:26:22;;;;;;;4.13;2.42;;;11.20;99.90;;;;;;5056464;28;20149;-71
2022/09/26 06:28:54;;;;;;;7.15;2.10;;;11.20;99.90;;;;;;5057573;28;21448;-71
2022/09/26 06:31:20;;;;;;;4.10;2.05;;;11.20;99.90;;;;;;5053063;28;20025;-71
2022/09/26 06:33:52;;;;;;;5.82;2.10;;;11.20;99.90;;;;;;5058991;28;20135;-71
2022/09/26 06:36:18;;;;;;;3.63;1.77;;;11.10;99.90;;;;;;5059782;28;20048;-71
2022/09/26 06:38:44;;;;;;;3.33;1.70;;;11.10;99.90;;;;;;5061309;28;20037;-77
2022/09/26 06:41:09;;;;;;;5.20;2.15;;;11.20;99.90;;;;;;5058171;28;20102;-70
2022/09/26 06:43:35;;;;;;;4.95;2.03;;;11.10;99.90;;;;;;5056004;28;20052;-70
2022/09/26 06:46:01;;;;;;;5.53;2.13;;;11.10;99.90;;;;;;5061173;28;20456;-70
2022/09/26 06:48:27;;;;;;;4.63;1.80;;;11.10;99.90;;;;;;5050445;28;20037;-70
2022/09/26 06:50:55;;;;;;;6.78;2.17;;;11.10;99.90;;;;;;5054681;28;20033;-70
2022/09/26 06:53:21;;;;;;;7.80;2.28;;;11.10;99.90;;;;;;5063611;28;20082;-71
2022/09/26 06:55:47;;;;;;;5.70;2.00;;;11.10;99.90;;;;;;5062126;28;20045;-71
2022/09/26 06:58:13;;;;;;;4.07;1.90;;;11.10;99.90;;;;;;5055377;28;20123;-70
2022/09/26 07:00:39;;;;;;;4.40;2.22;;;11.10;99.90;;;;;;5062376;28;20132;-70
2022/09/26 07:03:07;;;;;;;3.05;1.95;;;11.10;99.90;;;;;;5063652;28;20094;-71
2022/09/26 07:05:33;;;;;;;4.32;1.77;;;11.10;99.90;;;;;;5057268;28;20481;-71
2022/09/26 07:08:00;;;;;;;4.35;2.15;;;11.10;99.90;;;;;;5059252;28;20116;-70
2022/09/26 07:10:27;;;;;;;9.13;2.30;;;11.10;99.90;;;;;;5055447;28;20033;-71
2022/09/26 07:13:01;;;;;;;5.43;1.85;;;11.10;99.90;;;;;;5054980;28;20511;-71
2022/09/26 07:15:29;;;;;;;7.38;2.22;;;11.10;99.90;;;;;;5062994;28;20037;-71
2022/09/26 07:18:00;;;;;;;7.22;1.90;;;11.10;99.90;;;;;;5057176;28;20044;-71
2022/09/26 07:20:31;;;;;;;3.17;1.83;;;11.10;99.90;;;;;;5056957;28;20040;-71
2022/09/26 07:23:00;;;;;;;4.43;1.67;;;11.10;99.90;;;;;;5051998;28;20044;-70
2022/09/26 07:25:26;;;;;;;5.55;1.80;;;11.10;99.90;;;;;;5067811;28;20383;-71
2022/09/26 07:27:52;;;;;;;3.93;2.10;;;11.10;99.90;;;;;;5067256;28;20320;-71
2022/09/26 07:30:18;;;;;;;4.93;1.75;;;11.20;99.90;;;;;;5062793;28;20574;-71
2022/09/26 07:32:46;;;;;;;2.28;1.40;;;11.20;99.90;;;;;;5057701;28;20479;-71
2022/09/26 07:35:16;;;;;;;6.63;1.90;;;11.20;99.90;;;;;;5044969;28;20044;-71
2022/09/26 07:37:43;;;;;;;6.45;2.08;;;11.20;99.90;;;;;;5057873;28;20120;-71
2022/09/26 07:40:08;;;;;;;;;;;11.20;99.90;;;;;;5059056;28;20119;-70
2022/09/26 07:42:36;;;;;;;4.00;1.48;;;11.30;99.90;;;;;;5064108;28;20373;-71
2022/09/26 07:45:02;;;;;;;4.38;1.75;;;11.30;99.90;;;;;;5061011;28;20115;-71
2022/09/26 07:50:16;;;;;;;3.20;1.60;;;11.30;99.90;;;;;;5047666;28;20053;-71
2022/09/26 07:52:45;;;;;;;4.93;1.77;;;11.30;99.90;;;;;;5060290;28;20045;-71
2022/09/26 07:55:14;;;;;;;5.53;1.92;;;11.40;99.90;;;;;;5051662;28;20041;-71
2022/09/26 07:57:40;;;;;;;6.53;1.85;;;11.40;99.90;;;;;;5056399;28;20048;-71
2022/09/26 08:00:13;;;;;;;5.00;1.70;;;11.50;99.90;;;;;;5062256;28;20151;-71
2022/09/26 08:02:41;;;;;;;4.35;1.13;;;11.40;99.90;;;;;;5065194;28;20119;-71
2022/09/26 08:05:09;;;;;;;5.85;1.55;;;11.50;99.90;;;;;;5057073;28;20036;-71
2022/09/26 08:07:35;;;;;;;2.05;1.25;;;11.50;99.90;;;;;;5064626;22;20057;-72
2022/09/26 08:10:04;;;;;;;5.38;1.90;;;11.50;99.90;;;;;;5029293;28;20047;-72
2022/09/26 08:12:37;;;;;;;2.60;1.42;;;11.60;99.90;;;;;;5029366;28;20048;-72
2022/09/26 08:15:05;;;;;;;3.10;1.52;;;11.60;99.90;;;;;;5035622;28;20034;-72
2022/09/26 08:17:32;;;;;;;3.47;1.70;;;11.70;99.90;;;;;;5035081;28;20052;-72
2022/09/26 08:20:01;;;;;;;4.88;1.58;;;11.70;99.90;;;;;;5022704;28;20049;-72
2022/09/26 08:22:27;;;;;;;3.33;1.83;;;11.70;99.90;;;;;;5049604;28;20055;-72
2022/09/26 08:24:54;;;;;;;4.50;1.60;;;11.70;99.90;;;;;;5047838;28;20033;-72
2022/09/26 08:27:21;;;;;;;4.53;1.52;;;11.70;99.90;;;;;;5042082;28;20048;-72
2022/09/26 08:29:48;;;;;;;3.63;1.58;;;11.80;99.90;;;;;;5025128;28;20084;-72
2022/09/26 08:32:18;;;;;;;3.33;1.45;;;11.70;99.90;;;;;;5026988;28;20053;-72
2022/09/26 08:34:45;;;;;;;5.65;1.40;;;11.70;99.90;;;;;;5027586;28;21082;-71
2022/09/26 08:37:12;;;;;;;3.92;1.38;;;11.80;99.90;;;;;;5027730;28;20044;-72
2022/09/26 08:39:38;;;;;;;4.40;1.50;;;11.80;99.90;;;;;;5026002;28;20123;-71
2022/09/26 08:42:39;;;;;;;3.07;1.23;;;11.90;99.90;;;;;;5033252;28;20422;-72
2022/09/26 08:48:26;;;;;;;3.20;1.33;;;12.00;99.90;;;;;;5021965;28;20076;-71
2022/09/26 08:51:31;;;;;;;6.45;1.70;;;12.00;99.90;;;;;;5044324;28;20339;-71
2022/09/26 08:54:07;;;;;;;4.05;1.52;;;12.10;99.90;;;;;;5041112;28;20118;-72
2022/09/26 08:56:39;;;;;;;3.20;1.40;;;12.10;99.90;;;;;;5022690;28;20048;-72
2022/09/26 08:59:10;;;;;;;2.45;1.48;;;12.10;99.90;;;;;;5045655;28;20305;-72
2022/09/26 09:01:41;;;;;;;3.95;1.40;;;12.20;99.90;;;;;;5005814;28;20052;-71
2022/09/26 09:04:14;;;;;;;4.95;1.33;;;12.20;99.90;;;;;;5045918;28;20237;-71
2022/09/26 09:06:42;;;;;;;4.85;1.60;;;12.20;99.90;;;;;;5031301;28;20041;-76
2022/09/26 09:09:13;;;;;;;8.02;1.77;;;12.20;99.90;;;;;;5044197;28;20040;-72
2022/09/26 09:11:58;;;;;;;5.45;1.33;;;12.20;99.90;;;;;;5026203;28;20369;-72
2022/09/26 09:14:51;;;;;;;3.85;1.92;;;12.30;99.90;;;;;;5041738;28;20037;-72
2022/09/26 09:17:31;;;;;;;2.55;1.65;;;12.20;99.90;;;;;;5036682;28;20041;-72
2022/09/26 09:20:12;;;;;;;7.43;1.88;;;12.20;99.90;;;;;;5025357;28;20045;-71
2022/09/26 09:22:52;;;;;;;6.30;2.00;;;12.30;99.90;;;;;;5048641;28;20052;-71
2022/09/26 09:25:24;;;;;;;3.55;1.58;;;12.20;99.90;;;;;;5022572;28;20041;-71
2022/09/26 09:28:14;;;;;;;5.82;1.50;;;12.20;99.90;;;;;;5032130;28;20351;-73
2022/09/26 09:30:59;;;;;;;4.15;2.22;;;12.30;99.90;;;;;;5033327;28;20124;-72
2022/09/26 09:33:30;;;;;;;5.82;1.85;;;12.20;99.90;;;;;;5028535;28;20509;-73
2022/09/26 09:36:05;;;;;;;4.55;1.95;;;12.20;99.90;;;;;;5022249;28;20044;-72
2022/09/26 09:38:34;;;;;;;4.53;1.88;;;12.20;99.90;;;;;;5025351;28;20967;-73
2022/09/26 09:41:11;;;;;;;5.30;2.05;;;12.10;99.90;;;;;;5046402;28;20115;-73
2022/09/26 09:43:43;;;;;;;;;;;12.10;99.90;;;;;;5025788;28;20118;-72
2022/09/26 09:46:27;;;;;;;3.70;1.85;;;12.10;99.90;;;;;;5023821;28;19917;-73
2022/09/26 09:49:13;;;;;;;8.85;1.75;;;12.00;99.90;;;;;;5026521;28;20045;-73
2022/09/26 09:51:56;;;;;;;7.32;1.90;;;12.00;99.90;;;;;;5022878;28;20055;-72
2022/09/26 09:55:02;;;;;;;5.38;1.83;;;12.10;99.90;;;;;;5040940;28;20483;-73
2022/09/26 09:58:19;;;;;;;3.67;1.80;;;12.00;99.90;;;;;;5030941;28;20159;-73
2022/09/26 10:01:11;;;;;;;6.05;2.22;;;12.00;99.90;;;;;;4995538;28;20392;-72
2022/09/26 10:03:54;;;;;;;3.58;1.83;;;12.00;99.90;;;;;;5030842;28;20051;-72
2022/09/26 10:06:21;;;;;;;4.90;2.13;;;12.00;99.90;;;;;;5041057;28;20037;-72
2022/09/26 10:08:49;;;;;;;4.25;1.95;;;11.90;99.90;;;;;;5047233;28;20040;-72
2022/09/26 10:11:35;;;;;;;7.95;2.10;;;12.00;99.90;;;;;;5044157;28;20036;-72
2022/09/26 10:14:05;;;;;;;5.57;2.13;;;12.00;99.90;;;;;;5026808;28;20231;-72
2022/09/26 10:16:33;;;;;;;5.45;2.10;;;11.90;99.90;;;;;;5046573;28;20083;-72
2022/09/26 10:19:07;;;;;;;5.90;2.53;;;11.90;99.90;;;;;;5038853;28;20036;-73
2022/09/26 10:21:39;;;;;;;5.60;2.30;;;12.00;99.90;;;;;;5026714;28;20056;-73
2022/09/26 10:24:21;;;;;;;4.45;2.22;;;11.90;99.90;;;;;;5036979;28;20489;-72
2022/09/26 10:26:49;;;;;;;4.00;2.25;;;11.90;99.90;;;;;;5019289;28;20043;-72
2022/09/26 10:29:26;;;;;;;7.50;2.40;;;11.90;99.90;;;;;;5024731;28;20124;-72
2022/09/26 10:31:59;;;;;;;3.17;2.28;;;11.90;99.90;;;;;;5041864;28;20075;-72
2022/09/26 10:35:06;;;;;;;6.55;2.47;;;11.90;99.90;;;;;;5050968;28;20108;-72
2022/09/26 10:37:35;;;;;;;4.45;2.30;;;11.90;99.90;;;;;;5043832;28;20041;-73
2022/09/26 10:42:46;;;;;;;5.18;2.50;;;11.80;99.90;;;;;;5042249;28;20044;-72
2022/09/26 10:45:18;;;;;;;6.57;2.42;;;11.90;99.90;;;;;;5025808;28;20102;-72
2022/09/26 10:47:46;;;;;;;4.38;2.53;;;11.80;99.90;;;;;;5021984;28;20076;-72
2022/09/26 10:50:22;;;;;;;3.53;2.38;;;11.80;99.90;;;;;;5037612;28;20089;-72
2022/09/26 10:52:52;;;;;;;3.30;2.20;;;11.90;99.90;;;;;;5023710;28;20040;-72
2022/09/26 10:55:30;;;;;;;3.80;2.33;;;11.80;99.90;;;;;;5044836;28;20056;-72
2022/09/26 10:58:03;;;;;;;7.00;2.60;;;11.90;99.90;;;;;;5049283;28;20048;-73
2022/09/26 11:00:43;;;;;;;7.03;2.80;;;11.80;99.90;;;;;;5041498;28;20127;-72
2022/09/26 11:03:15;;;;;;;3.85;2.70;;;11.80;99.90;;;;;;5043828;28;20095;-72
2022/09/26 11:05:56;;;;;;;8.70;3.58;;;11.80;99.90;;;;;;5028650;28;20037;-72
2022/09/26 11:08:29;;;;;;;4.72;2.72;;;11.90;99.90;;;;;;5049797;28;20566;-72
2022/09/26 11:10:57;;;;;;;4.15;2.80;;;11.80;99.90;;;;;;5023642;28;20411;-71
2022/09/26 11:13:28;;;;;;;3.53;2.53;;;11.90;99.90;;;;;;5019370;28;20124;-72
2022/09/26 11:16:00;;;;;;;3.33;2.30;;;11.90;99.90;;;;;;5026839;28;20478;-73
2022/09/26 11:18:43;;;;;;;4.65;2.70;;;11.90;99.90;;;;;;5021263;28;20042;-72
2022/09/26 11:21:34;;;;;;;3.65;2.20;;;12.00;99.90;;;;;;5042265;28;20049;-71
2022/09/26 11:24:10;;;;;;;5.22;2.88;;;12.00;99.90;;;;;;5033945;28;20494;-72
2022/09/26 11:27:14;;;;;;;5.68;2.72;;;12.00;99.90;;;;;;5024623;28;20491;-71
2022/09/26 11:30:08;;;;;;;4.75;2.40;;;12.00;99.90;;;;;;4960349;28;20102;-72
2022/09/26 11:32:41;;;;;;;4.15;2.40;;;12.00;99.90;;;;;;5033078;28;20178;-72
2022/09/26 11:35:28;;;;;;;4.00;2.35;;;12.00;99.90;;;;;;5035632;28;20261;-72
2022/09/26 11:38:04;;;;;;;3.95;2.33;;;12.10;99.90;;;;;;5041762;28;20359;-72
2022/09/26 11:40:33;;;;;;;9.00;2.65;;;12.10;99.90;;;;;;5039936;28;20044;-72
2022/09/26 11:43:01;;;;;;;4.40;2.33;;;12.20;99.90;;;;;;5036048;28;20124;-72
2022/09/26 11:45:55;;;;;;;4.28;2.33;;;12.20;99.90;;;;;;5023444;28;20673;-72
2022/09/26 11:48:59;;;;;;;5.15;2.33;;;12.20;99.90;;;;;;5021764;28;20114;-72
2022/09/26 11:51:53;;;;;;;4.88;2.28;;;12.20;99.90;;;;;;5036473;28;20049;-72
2022/09/26 11:54:44;;;;;;;4.25;2.10;;;12.20;99.90;;;;;;5043921;28;20029;-72
2022/09/26 11:57:25;;;;;;;6.80;2.50;;;12.20;99.90;;;;;;5040828;28;20041;-72
2022/09/26 12:00:36;;;;;;;5.53;2.53;;;12.20;99.90;;;;;;5039572;28;20111;-72
2022/09/26 12:03:12;;;;;;;4.95;3.15;;;12.20;99.90;;;;;;4974516;28;20483;-72
2022/09/26 12:05:59;;;;;;;5.10;2.80;;;12.20;99.90;;;;;;5018359;28;20059;-72
2022/09/26 12:08:59;;;;;;;4.30;2.50;;;12.20;99.90;;;;;;5042173;28;20435;-72
2022/09/26 12:11:33;;;;;;;4.43;3.17;;;12.30;99.90;;;;;;5016090;28;20491;-72
2022/09/26 12:14:11;;;;;;;3.53;2.17;;;12.30;99.90;;;;;;5038726;28;20029;-72
2022/09/26 12:16:51;;;;;;;4.25;2.47;;;12.30;99.90;;;;;;5024354;28;20075;-72
2022/09/26 12:19:38;;;;;;;6.95;2.55;;;12.40;99.90;;;;;;5017214;28;20033;-72
2022/09/26 12:22:37;;;;;;;3.60;2.58;;;12.30;99.90;;;;;;5034993;28;20069;-72
2022/09/26 12:25:09;;;;;;;4.07;2.33;;;12.30;99.90;;;;;;5028953;28;20476;-72
2022/09/26 12:27:42;;;;;;;6.65;2.45;;;12.40;99.90;;;;;;5020599;28;20048;-72
2022/09/26 12:30:11;;;;;;;4.55;2.70;;;12.50;99.90;;;;;;5045290;28;20234;-72
2022/09/26 12:32:58;;;;;;;3.28;2.22;;;12.60;99.90;;;;;;5018691;28;20434;-72
2022/09/26 12:35:33;;;;;;;3.55;2.47;;;12.70;99.90;;;;;;5037217;28;20051;-72
2022/09/26 12:38:23;;;;;;;4.10;2.60;;;12.80;99.90;;;;;;5025417;28;20422;-72
2022/09/26 12:41:07;;;;;;;3.85;2.67;;;12.80;99.90;;;;;;5016732;28;20480;-73
2022/09/26 12:44:21;;;;;;;3.30;2.03;;;12.80;99.90;;;;;;5037539;28;20132;-73
2022/09/26 12:47:17;;;;;;;3.95;2.25;;;12.80;99.90;;;;;;5018979;28;20045;-72
2022/09/26 12:50:08;;;;;;;4.10;1.95;;;12.80;99.90;;;;;;5035106;28;20056;-72
2022/09/26 12:52:55;;;;;;;5.10;2.55;;;12.80;99.90;;;;;;5012981;28;20136;-72
2022/09/26 12:55:40;;;;;;;4.97;2.25;;;12.80;99.90;;;;;;5029206;28;20044;-73
2022/09/26 12:58:28;;;;;;;5.72;2.47;;;12.90;99.90;;;;;;5031294;28;20105;-72
2022/09/26 13:01:02;;;;;;;6.43;2.35;;;12.90;99.90;;;;;;5013942;28;20045;-72
2022/09/26 13:03:49;;;;;;;3.20;2.00;;;12.90;99.90;;;;;;5036030;28;20474;-72
2022/09/26 13:06:47;;;;;;;3.35;2.15;;;12.90;99.90;;;;;;5037979;28;20037;-73
2022/09/26 13:09:26;;;;;;;3.55;2.15;;;12.90;99.90;;;;;;5038564;28;20263;-72
2022/09/26 13:12:18;;;;;;;3.38;2.03;;;12.90;99.90;;;;;;5039741;28;20432;-72
2022/09/26 13:14:59;;;;;;;3.47;2.00;;;12.90;99.90;;;;;;5015438;28;20053;-72
2022/09/26 13:17:40;;;;;;;3.60;2.47;;;12.90;99.90;;;;;;5034849;28;20037;-72
2022/09/26 13:20:30;;;;;;;4.22;2.13;;;13.00;99.90;;;;;;5023053;28;20462;-72
2022/09/26 13:23:17;;;;;;;4.88;1.98;;;13.00;99.90;;;;;;5013452;28;20053;-72
2022/09/26 13:25:48;;;;;;;3.73;2.10;;;13.00;99.90;;;;;;4997285;28;20071;-72
2022/09/26 13:28:20;;;;;;;3.47;2.40;;;13.00;99.90;;;;;;5035186;28;20034;-72
2022/09/26 13:30:52;;;;;;;4.50;2.15;;;13.00;99.90;;;;;;5019873;28;20114;-72
2022/09/26 13:33:40;;;;;;;3.20;1.95;;;13.10;99.90;;;;;;5034100;28;20045;-72
2022/09/26 13:36:09;;;;;;;2.55;1.80;;;13.10;99.90;;;;;;5037931;28;20044;-72
2022/09/26 13:38:56;;;;;;;3.17;2.05;;;13.20;99.90;;;;;;5034654;28;20132;-73